createdAt,value
2023-01-13T00:01:25.673Z,100234.31
2023-01-13T00:03:52.327Z,100222.28
2023-01-13T00:06:21.784Z,100220.50
2023-01-13T00:08:49.316Z,100230.50
2023-01-13T00:11:15.980Z,100228.88
2023-01-13T00:13:42.643Z,100222.47
2023-01-13T00:16:12.829Z,100225.13
2023-01-13T00:18:39.294Z,100226.91
2023-01-13T00:21:09.875Z,100227.72
2023-01-13T00:23:36.285Z,100231.53
2023-01-13T00:26:05.454Z,100224.72
2023-01-13T00:28:32.204Z,100215.88
2023-01-13T00:31:09.836Z,100212.69
2023-01-13T00:33:37.130Z,100199.84
2023-01-13T00:36:05.265Z,100190.25
2023-01-13T00:38:33.609Z,100220.38
2023-01-13T00:41:05.775Z,100218.56
2023-01-13T00:43:33.781Z,100211.94
2023-01-13T00:46:00.471Z,100219.78
2023-01-13T00:48:28.117Z,100208.34
2023-01-13T00:51:00.040Z,100220.59
2023-01-13T00:53:27.851Z,100214.22
2023-01-13T00:56:00.545Z,100221.22
2023-01-13T00:58:27.235Z,100198.75
2023-01-13T01:00:53.795Z,100214.63
2023-01-13T01:03:20.204Z,100212.59
2023-01-13T01:05:46.620Z,100216.41
2023-01-13T01:08:13.029Z,100219.63
2023-01-13T01:10:39.433Z,100225.84
2023-01-13T01:13:05.849Z,100224.03
2023-01-13T01:15:32.283Z,100229.28
2023-01-13T01:17:58.659Z,100220.44
2023-01-13T01:20:25.062Z,100197.34
2023-01-13T01:22:51.451Z,100229.47
2023-01-13T01:25:17.889Z,100216.63
2023-01-13T01:27:44.268Z,100214.59
2023-01-13T01:30:11.304Z,100197.97
2023-01-13T01:32:37.675Z,100211.22
2023-01-13T01:35:04.344Z,100218.63
2023-01-13T01:37:30.732Z,100216.00
2023-01-13T01:39:57.118Z,100225.84
2023-01-13T01:42:23.543Z,100214.81
2023-01-13T01:44:58.806Z,100219.03
2023-01-13T01:47:27.444Z,100221.22
2023-01-13T01:49:55.665Z,100216.44
2023-01-13T01:52:37.229Z,100214.41
2023-01-13T01:55:10.509Z,100219.63
2023-01-13T01:57:47.635Z,100219.44
2023-01-13T02:00:14.358Z,100232.66
2023-01-13T02:02:43.849Z,100223.22
2023-01-13T02:05:10.619Z,100234.47
2023-01-13T02:07:39.830Z,100229.47
2023-01-13T02:10:08.835Z,100227.84
2023-01-13T02:12:36.404Z,100226.44
2023-01-13T02:15:15.480Z,100214.63
2023-01-13T02:17:51.020Z,100224.84
2023-01-13T02:20:48.533Z,100227.44
2023-01-13T02:23:36.982Z,100213.03
2023-01-13T02:26:39.764Z,100206.59
2023-01-13T02:29:24.925Z,100183.94
2023-01-13T02:31:55.209Z,100183.34
2023-01-13T02:34:34.274Z,100190.56
2023-01-13T02:37:10.146Z,100195.97
2023-01-13T02:39:44.900Z,100198.78
2023-01-13T02:42:28.862Z,100190.16
2023-01-13T02:45:11.808Z,100166.09
2023-01-13T02:47:40.139Z,100171.31
2023-01-13T02:50:15.117Z,100166.69
2023-01-13T02:52:46.295Z,100182.53
2023-01-13T02:55:17.375Z,100172.91
2023-01-13T02:57:45.119Z,100175.94
2023-01-13T03:00:12.967Z,100170.31
2023-01-13T03:02:39.840Z,100157.88
2023-01-13T03:05:06.526Z,100171.91
2023-01-13T03:07:57.500Z,100178.53
2023-01-13T03:10:38.579Z,100169.50
2023-01-13T03:13:42.084Z,100182.34
2023-01-13T03:16:34.553Z,100185.31
2023-01-13T03:19:22.849Z,100181.13
2023-01-13T03:22:08.254Z,100163.50
2023-01-13T03:24:39.258Z,100174.91
2023-01-13T03:27:08.310Z,100176.72
2023-01-13T03:29:40.915Z,100176.91
2023-01-13T03:32:16.224Z,100167.09
2023-01-13T03:34:50.335Z,100169.69
2023-01-13T03:37:21.151Z,100161.28
2023-01-13T03:39:52.861Z,100161.09
2023-01-13T03:42:25.991Z,100159.88
2023-01-13T03:44:58.978Z,100172.31
2023-01-13T03:47:29.364Z,100167.09
2023-01-13T03:50:20.543Z,100180.72
2023-01-13T03:52:53.095Z,100175.50
2023-01-13T03:55:26.745Z,100167.31
2023-01-13T03:58:09.790Z,100183.31
2023-01-13T04:01:03.654Z,100174.50
2023-01-13T04:03:48.799Z,100185.94
2023-01-13T04:06:33.994Z,100170.50
2023-01-13T04:09:18.760Z,100177.91
2023-01-13T04:11:55.224Z,100161.09
2023-01-13T04:14:25.612Z,100143.81
2023-01-13T04:16:51.980Z,100145.63
2023-01-13T04:19:18.383Z,100139.63
2023-01-13T04:21:44.878Z,100148.66
2023-01-13T04:24:11.319Z,100150.63
2023-01-13T04:26:37.741Z,100154.28
2023-01-13T04:29:04.117Z,100142.22
2023-01-13T04:31:30.448Z,100145.84
2023-01-13T04:33:56.763Z,100161.69
2023-01-13T04:36:23.028Z,100149.88
2023-01-13T04:38:50.295Z,100167.88
2023-01-13T04:41:16.643Z,100155.47
2023-01-13T04:43:42.966Z,100165.47
2023-01-13T04:46:09.368Z,100167.09
2023-01-13T04:48:35.732Z,100159.28
2023-01-13T04:51:02.097Z,100161.28
2023-01-13T04:53:28.644Z,100155.25
2023-01-13T04:55:54.994Z,100149.25
2023-01-13T04:58:21.389Z,100161.69
2023-01-13T05:00:47.793Z,100144.66
2023-01-13T05:03:14.204Z,100152.84
2023-01-13T05:05:40.581Z,100155.06
2023-01-13T05:08:06.979Z,100142.25
2023-01-13T05:10:33.299Z,100127.59
2023-01-13T05:12:59.714Z,100131.81
2023-01-13T05:15:26.118Z,100135.81
2023-01-13T05:17:52.537Z,100128.22
2023-01-13T05:20:19.131Z,100143.84
2023-01-13T05:22:45.450Z,100148.44
2023-01-13T05:25:12.485Z,100146.63
2023-01-13T05:27:38.875Z,100149.84
2023-01-13T05:30:06.267Z,100146.03
2023-01-13T05:32:32.595Z,100128.78
2023-01-13T05:34:59.229Z,100140.81
2023-01-13T05:37:26.073Z,100149.81
2023-01-13T05:39:52.429Z,100138.19
2023-01-13T05:42:18.789Z,100140.41
2023-01-13T05:44:45.125Z,100142.19
2023-01-13T05:47:11.490Z,100136.59
2023-01-13T05:49:37.964Z,100132.59
2023-01-13T05:52:04.451Z,100114.75
2023-01-13T05:54:30.804Z,100137.19
2023-01-13T05:56:57.116Z,100145.41
2023-01-13T05:59:23.355Z,100130.78
2023-01-13T06:01:49.691Z,100146.00
2023-01-13T06:04:16.137Z,100144.00
2023-01-13T06:06:42.455Z,100142.59
2023-01-13T06:09:08.712Z,100142.22
2023-01-13T06:11:35.035Z,100139.81
2023-01-13T06:14:01.434Z,100149.84
2023-01-13T06:16:27.877Z,100146.25
2023-01-13T06:18:54.316Z,100156.25
2023-01-13T06:21:20.723Z,100160.69
2023-01-13T06:23:47.108Z,100172.09
2023-01-13T06:26:20.318Z,100180.50
2023-01-13T06:28:46.732Z,100179.50
2023-01-13T06:31:13.241Z,100171.50
2023-01-13T06:33:45.713Z,100170.09
2023-01-13T06:36:18.905Z,100160.88
2023-01-13T06:38:49.787Z,100169.50
2023-01-13T06:41:16.976Z,100173.09
2023-01-13T06:43:43.440Z,100165.28
2023-01-13T06:46:09.794Z,100154.25
2023-01-13T06:48:36.146Z,100174.28
2023-01-13T06:51:03.831Z,100174.91
2023-01-13T06:53:30.241Z,100163.28
2023-01-13T06:55:56.607Z,100177.91
2023-01-13T06:58:22.986Z,100176.13
2023-01-13T07:00:49.384Z,100165.09
2023-01-13T07:03:18.128Z,100174.50
2023-01-13T07:05:52.031Z,100182.75
2023-01-13T07:08:18.412Z,100180.13
2023-01-13T07:10:44.800Z,100164.09
2023-01-13T07:13:11.185Z,100173.72
2023-01-13T07:15:37.714Z,100164.28
2023-01-13T07:18:04.115Z,100177.09
2023-01-13T07:20:30.623Z,100174.13
2023-01-13T07:22:58.265Z,100182.72
2023-01-13T07:25:24.917Z,100170.09
2023-01-13T07:27:51.350Z,100174.50
2023-01-13T07:30:18.072Z,100169.91
2023-01-13T07:32:44.598Z,100181.34
2023-01-13T07:35:11.134Z,100175.09
2023-01-13T07:37:37.928Z,100164.28
2023-01-13T07:40:05.216Z,100173.53
2023-01-13T07:42:31.580Z,100162.88
2023-01-13T07:44:58.040Z,100173.91
2023-01-13T07:47:24.470Z,100163.47
2023-01-13T07:49:51.028Z,100160.28
2023-01-13T07:52:17.396Z,100176.72
2023-01-13T07:54:43.708Z,100174.69
2023-01-13T07:57:10.184Z,100171.09
2023-01-13T07:59:36.557Z,100186.13
2023-01-13T08:02:03.226Z,100179.94
2023-01-13T08:04:29.737Z,100174.13
2023-01-13T08:06:56.266Z,100192.56
2023-01-13T08:09:22.576Z,100192.97
2023-01-13T08:11:48.972Z,100178.53
2023-01-13T08:14:15.402Z,100209.59
2023-01-13T08:16:41.882Z,100208.41
2023-01-13T08:19:08.261Z,100207.00
2023-01-13T08:21:34.581Z,100212.63
2023-01-13T08:24:00.903Z,100210.41
2023-01-13T08:26:27.265Z,100215.63
2023-01-13T08:28:53.798Z,100232.28
2023-01-13T08:31:20.368Z,100223.25
2023-01-13T08:33:46.817Z,100234.88
2023-01-13T08:36:13.403Z,100235.47
2023-01-13T08:38:40.656Z,100242.28
2023-01-13T08:41:15.602Z,100217.84
2023-01-13T08:43:42.163Z,100244.09
2023-01-13T08:46:08.785Z,100232.84
2023-01-13T08:48:35.297Z,100249.72
2023-01-13T08:51:06.494Z,100231.66
2023-01-13T08:53:32.921Z,100254.94
2023-01-13T08:55:59.336Z,100265.94
2023-01-13T08:58:25.729Z,100280.41
2023-01-13T09:00:52.203Z,100276.56
2023-01-13T09:03:18.628Z,100281.78
2023-01-13T09:05:44.979Z,100290.22
2023-01-13T09:08:11.337Z,100291.81
2023-01-13T09:10:37.739Z,100292.63
2023-01-13T09:13:04.056Z,100287.97
2023-01-13T09:15:30.447Z,100299.00
2023-01-13T09:17:56.902Z,100306.63
2023-01-13T09:20:23.325Z,100297.59
2023-01-13T09:22:49.706Z,100301.00
2023-01-13T09:25:16.124Z,100310.41
2023-01-13T09:27:42.462Z,100310.59
2023-01-13T09:30:09.550Z,100324.84
2023-01-13T09:32:36.078Z,100326.66
2023-01-13T09:35:02.444Z,100317.84
2023-01-13T09:37:33.042Z,100324.66
2023-01-13T09:40:00.203Z,100321.25
2023-01-13T09:42:38.109Z,100317.03
2023-01-13T09:45:14.380Z,100311.41
2023-01-13T09:47:57.160Z,100312.22
2023-01-13T09:50:57.707Z,100329.28
2023-01-13T09:53:39.384Z,100319.03
2023-01-13T09:56:06.370Z,100333.50
2023-01-13T09:58:33.160Z,100334.72
2023-01-13T10:01:37.033Z,100336.16
2023-01-13T10:04:10.207Z,100328.31
2023-01-13T10:06:39.533Z,100334.75
2023-01-13T10:09:06.321Z,100343.38
2023-01-13T10:11:39.432Z,100334.16
2023-01-13T10:14:37.996Z,100351.00
2023-01-13T10:17:21.075Z,100324.31
2023-01-13T10:19:59.725Z,100334.16
2023-01-13T10:22:41.425Z,100323.34
2023-01-13T10:25:38.713Z,100332.38
2023-01-13T10:28:14.033Z,100342.78
2023-01-13T10:30:42.934Z,100349.59
2023-01-13T10:33:18.404Z,100352.81
2023-01-13T10:36:01.292Z,100347.59
2023-01-13T10:38:30.324Z,100344.00
2023-01-13T10:41:02.429Z,100365.47
2023-01-13T10:43:29.767Z,100351.59
2023-01-13T10:46:06.569Z,100367.47
2023-01-13T10:48:38.959Z,100373.72
2023-01-13T10:51:31.060Z,100363.28
2023-01-13T10:53:57.396Z,100360.88
2023-01-13T10:56:27.200Z,100382.94
2023-01-13T10:59:20.595Z,100372.31
2023-01-13T11:02:04.052Z,100366.69
2023-01-13T11:04:43.774Z,100371.53
2023-01-13T11:07:39.840Z,100373.72
2023-01-13T11:10:09.040Z,100374.53
2023-01-13T11:12:58.297Z,100368.91
2023-01-13T11:15:38.360Z,100384.56
2023-01-13T11:18:35.154Z,100397.78
2023-01-13T11:21:06.776Z,100395.00
2023-01-13T11:23:39.455Z,100395.38
2023-01-13T11:26:31.768Z,100402.59
2023-01-13T11:29:10.388Z,100407.81
2023-01-13T11:31:42.723Z,100406.22
2023-01-13T11:34:29.739Z,100399.78
2023-01-13T11:36:59.035Z,100394.16
2023-01-13T11:39:48.826Z,100399.81
2023-01-13T11:42:43.273Z,100413.44
2023-01-13T11:45:21.350Z,100404.81
2023-01-13T11:47:55.038Z,100415.44
2023-01-13T11:50:34.286Z,100411.66
2023-01-13T11:53:00.550Z,100405.00
2023-01-13T11:55:55.799Z,100402.81
2023-01-13T11:59:11.838Z,100420.28
2023-01-13T12:01:47.724Z,100420.91
2023-01-13T12:04:23.367Z,100434.16
2023-01-13T12:07:06.004Z,100439.78
2023-01-13T12:09:42.295Z,100427.31
2023-01-13T12:12:39.244Z,100432.94
2023-01-13T12:15:31.905Z,100439.19
2023-01-13T12:18:03.511Z,100448.84
2023-01-13T12:20:43.803Z,100450.84
2023-01-13T12:23:41.203Z,100456.47
2023-01-13T12:26:12.308Z,100438.16
2023-01-13T12:29:01.537Z,100443.00
2023-01-13T12:31:28.984Z,100464.91
2023-01-13T12:34:26.406Z,100465.91
2023-01-13T12:36:58.702Z,100463.47
2023-01-13T12:39:39.872Z,100457.84
2023-01-13T12:42:10.474Z,100476.34
2023-01-13T12:44:36.930Z,100466.28
2023-01-13T12:47:03.412Z,100471.91
2023-01-13T12:49:33.065Z,100468.50
2023-01-13T12:52:04.632Z,100456.44
2023-01-13T12:54:30.986Z,100473.72
2023-01-13T12:56:58.169Z,100474.31
2023-01-13T12:59:24.493Z,100493.38
2023-01-13T13:02:09.037Z,100493.00
2023-01-13T13:04:47.839Z,100491.81
2023-01-13T13:07:22.393Z,100487.38
2023-01-13T13:09:57.940Z,100484.38
2023-01-13T13:12:30.111Z,100479.75
2023-01-13T13:14:57.606Z,100490.81
2023-01-13T13:17:29.780Z,100480.16
2023-01-13T13:19:57.721Z,100496.63
2023-01-13T13:22:26.921Z,100510.69
2023-01-13T13:24:56.270Z,100509.47
2023-01-13T13:27:46.843Z,100517.72
2023-01-13T13:30:39.249Z,100519.16
2023-01-13T13:33:20.860Z,100526.41
2023-01-13T13:36:28.608Z,100536.06
2023-01-13T13:39:10.345Z,100527.00
2023-01-13T13:41:44.277Z,100539.28
2023-01-13T13:44:20.370Z,100549.94
2023-01-13T13:46:48.940Z,100551.75
2023-01-13T13:49:18.231Z,100545.91
2023-01-13T13:52:02.534Z,100555.19
2023-01-13T13:54:29.953Z,100546.09
2023-01-13T13:56:56.372Z,100559.78
2023-01-13T13:59:26.586Z,100575.25
2023-01-13T14:01:56.844Z,100573.44
2023-01-13T14:04:24.701Z,100578.06
2023-01-13T14:07:16.510Z,100599.38
2023-01-13T14:09:46.208Z,100586.09
2023-01-13T14:12:25.760Z,100606.78
2023-01-13T14:14:52.216Z,100596.34
2023-01-13T14:17:22.869Z,100619.28
2023-01-13T14:19:55.931Z,100627.72
2023-01-13T14:22:22.502Z,100622.50
2023-01-13T14:24:49.511Z,100630.94
2023-01-13T14:27:18.575Z,100625.50
2023-01-13T14:29:45.429Z,100629.94
2023-01-13T14:32:19.236Z,100634.75
2023-01-13T14:34:46.019Z,100651.44
2023-01-13T14:37:39.628Z,100648.81
2023-01-13T14:40:06.859Z,100645.38
2023-01-13T14:42:33.273Z,100649.00
2023-01-13T14:44:59.783Z,100654.03
2023-01-13T14:47:28.635Z,100652.63
2023-01-13T14:50:06.232Z,100665.47
2023-01-13T14:52:36.138Z,100659.66
2023-01-13T14:55:05.511Z,100658.66
2023-01-13T14:57:33.524Z,100675.94
2023-01-13T15:00:02.980Z,100675.13
2023-01-13T15:02:29.384Z,100689.19
2023-01-13T15:04:57.614Z,100697.59
2023-01-13T15:07:28.945Z,100684.75
2023-01-13T15:09:58.783Z,100694.97
2023-01-13T15:12:34.668Z,100711.25
2023-01-13T15:15:06.422Z,100709.03
2023-01-13T15:17:33.953Z,100718.69
2023-01-13T15:20:00.279Z,100718.06
2023-01-13T15:22:26.620Z,100736.16
2023-01-13T15:24:53.022Z,100741.38
2023-01-13T15:27:25.312Z,100745.38
2023-01-13T15:29:51.610Z,100749.34
2023-01-13T15:32:20.792Z,100763.44
2023-01-13T15:34:47.915Z,100763.84
2023-01-13T15:37:17.085Z,100768.63
2023-01-13T15:39:43.388Z,100763.84
2023-01-13T15:42:14.548Z,100765.41
2023-01-13T15:44:40.954Z,100766.41
2023-01-13T15:47:09.869Z,100772.59
2023-01-13T15:49:42.031Z,100775.75
2023-01-13T15:52:22.820Z,100781.81
2023-01-13T15:54:50.865Z,100788.19
2023-01-13T15:57:24.883Z,100779.13
2023-01-13T15:59:54.750Z,100776.75
2023-01-13T16:02:21.409Z,100786.56
2023-01-13T16:04:48.154Z,100796.00
2023-01-13T16:07:18.701Z,100792.59
2023-01-13T16:09:45.524Z,100806.00
2023-01-13T16:12:12.699Z,100801.38
2023-01-13T16:14:39.488Z,100807.53
2023-01-13T16:17:20.897Z,100816.97
2023-01-13T16:19:47.305Z,100822.81
2023-01-13T16:22:14.919Z,100818.16
2023-01-13T16:24:41.770Z,100829.63
2023-01-13T16:27:22.254Z,100837.09
2023-01-13T16:29:50.090Z,100829.88
2023-01-13T16:32:17.238Z,100827.09
2023-01-13T16:34:44.434Z,100816.97
2023-01-13T16:37:27.215Z,100831.31
2023-01-13T16:39:54.419Z,100826.88
2023-01-13T16:42:21.179Z,100823.47
2023-01-13T16:44:47.564Z,100833.47
2023-01-13T16:47:15.408Z,100844.31
2023-01-13T16:49:41.945Z,100845.56
2023-01-13T16:52:08.366Z,100841.94
2023-01-13T16:54:35.007Z,100851.53
2023-01-13T16:57:01.971Z,100850.47
2023-01-13T16:59:28.541Z,100869.53
2023-01-13T17:01:55.004Z,100878.56
2023-01-13T17:04:22.410Z,100866.19
2023-01-13T17:07:02.871Z,100890.09
2023-01-13T17:09:29.773Z,100884.28
2023-01-13T17:11:56.996Z,100883.03
2023-01-13T17:14:24.428Z,100892.66
2023-01-13T17:16:53.429Z,100900.03
2023-01-13T17:19:22.023Z,100908.78
2023-01-13T17:21:48.808Z,100920.59
2023-01-13T17:24:15.325Z,100917.75
2023-01-13T17:26:44.650Z,100924.72
2023-01-13T17:29:24.433Z,100934.63
2023-01-13T17:31:51.452Z,100938.22
2023-01-13T17:34:19.475Z,100933.28
2023-01-13T17:36:45.811Z,100920.75
2023-01-13T17:39:17.445Z,100940.28
2023-01-13T17:41:44.807Z,100938.31
2023-01-13T17:44:15.877Z,100936.06
2023-01-13T17:46:43.082Z,100945.69
2023-01-13T17:49:17.328Z,100948.84
2023-01-13T17:51:44.427Z,100939.34
2023-01-13T17:54:10.773Z,100946.09
2023-01-13T17:56:37.851Z,100962.53
2023-01-13T17:59:05.114Z,100961.47
2023-01-13T18:01:31.642Z,100966.84
2023-01-13T18:03:58.655Z,100975.22
2023-01-13T18:06:25.703Z,100968.31
2023-01-13T18:08:53.044Z,100981.63
2023-01-13T18:11:21.240Z,100970.38
2023-01-13T18:13:52.284Z,100970.38
2023-01-13T18:16:19.834Z,100984.84
2023-01-13T18:18:49.030Z,100978.38
2023-01-13T18:21:26.446Z,100987.81
2023-01-13T18:23:52.875Z,100982.97
2023-01-13T18:26:20.123Z,100982.69
2023-01-13T18:28:46.460Z,100998.59
2023-01-13T18:31:12.929Z,100999.97
2023-01-13T18:33:39.301Z,101016.69
2023-01-13T18:36:07.314Z,101020.91
2023-01-13T18:38:33.746Z,101019.72
2023-01-13T18:41:00.179Z,101035.19
2023-01-13T18:43:26.539Z,101014.25
2023-01-13T18:45:53.140Z,101028.00
2023-01-13T18:48:19.549Z,101032.03
2023-01-13T18:50:45.928Z,101029.00
2023-01-13T18:53:12.287Z,101029.81
2023-01-13T18:55:38.843Z,101026.91
2023-01-13T18:58:05.393Z,101011.00
2023-01-13T19:00:31.772Z,101027.63
2023-01-13T19:05:32.557Z,101025.81
2023-01-13T19:07:58.964Z,101030.78
2023-01-13T19:10:25.306Z,101021.03
2023-01-13T19:12:51.627Z,101025.63
2023-01-13T19:15:18.107Z,101039.94
2023-01-13T19:17:44.573Z,101027.97
2023-01-13T19:20:11.493Z,101038.22
2023-01-13T19:22:37.896Z,101040.53
2023-01-13T19:25:04.852Z,101046.28
2023-01-13T19:27:31.478Z,101059.56
2023-01-13T19:29:57.907Z,101062.81
2023-01-13T19:32:24.485Z,101084.66
2023-01-13T19:34:51.075Z,101088.97
2023-01-13T19:37:18.006Z,101095.16
2023-01-13T19:39:44.619Z,101088.69
2023-01-13T19:42:13.371Z,101083.22
2023-01-13T19:44:39.828Z,101095.06
2023-01-13T19:47:06.183Z,101091.09
2023-01-13T19:49:33.029Z,101094.50
2023-01-13T19:51:59.387Z,101093.41
2023-01-13T19:54:25.762Z,101082.03
2023-01-13T19:56:52.423Z,101095.38
2023-01-13T19:59:18.831Z,101099.31
2023-01-13T20:01:45.212Z,101102.06
2023-01-13T20:04:11.616Z,101104.03
2023-01-13T20:06:37.973Z,101109.63
2023-01-13T20:09:04.347Z,101109.25
2023-01-13T20:11:30.742Z,101107.66
2023-01-13T20:14:00.970Z,101112.84
2023-01-13T20:16:29.366Z,101116.44
2023-01-13T20:18:56.458Z,101121.63
2023-01-13T20:21:23.136Z,101132.34
2023-01-13T20:23:51.225Z,101126.31
2023-01-13T20:26:18.377Z,101141.09
2023-01-13T20:28:46.350Z,101132.09
2023-01-13T20:31:14.014Z,101151.28
2023-01-13T20:33:40.559Z,101154.53
2023-01-13T20:36:08.318Z,101154.00
2023-01-13T20:38:34.675Z,101153.81
2023-01-13T20:41:01.796Z,101151.06
2023-01-13T20:43:28.208Z,101150.69
2023-01-13T20:45:54.550Z,101153.28
2023-01-13T20:48:20.825Z,101166.47
2023-01-13T20:50:52.625Z,101157.19
2023-01-13T20:53:18.992Z,101175.38
2023-01-13T20:55:45.606Z,101175.81
2023-01-13T20:58:12.004Z,101177.63
2023-01-13T21:00:38.447Z,101189.84
2023-01-13T21:03:04.846Z,101194.59
2023-01-13T21:05:31.299Z,101212.31
2023-01-13T21:07:57.717Z,101207.63
2023-01-13T21:10:24.101Z,101228.31
2023-01-13T21:12:50.436Z,101227.84
2023-01-13T21:15:16.827Z,101229.69
2023-01-13T21:17:44.886Z,101228.06
2023-01-13T21:20:13.813Z,101221.94
2023-01-13T21:22:44.534Z,101219.50
2023-01-13T21:25:11.091Z,101234.00
2023-01-13T21:27:37.619Z,101225.03
2023-01-13T21:30:04.955Z,101232.22
2023-01-13T21:32:31.427Z,101223.94
2023-01-13T21:34:57.791Z,101230.81
2023-01-13T21:37:24.666Z,101242.38
2023-01-13T21:39:51.075Z,101246.59
2023-01-13T21:42:17.685Z,101236.22
2023-01-13T21:44:44.070Z,101243.06
2023-01-13T21:47:18.619Z,101242.06
2023-01-13T21:49:44.986Z,101232.16
2023-01-13T21:52:12.902Z,101245.84
2023-01-13T21:54:39.681Z,101243.41
2023-01-13T21:57:06.070Z,101244.38
2023-01-13T21:59:32.572Z,101250.41
2023-01-13T22:02:04.792Z,101254.16
2023-01-13T22:04:45.331Z,101258.56
2023-01-13T22:07:11.788Z,101262.63
2023-01-13T22:09:38.104Z,101260.03
2023-01-13T22:12:04.922Z,101257.25
2023-01-13T22:14:31.724Z,101260.84
2023-01-13T22:16:58.089Z,101267.19
2023-01-13T22:19:24.525Z,101276.94
2023-01-13T22:21:50.882Z,101268.19
2023-01-13T22:24:17.229Z,101273.91
2023-01-13T22:26:43.467Z,101293.22
2023-01-13T22:29:09.802Z,101293.88
2023-01-13T22:31:36.110Z,101300.03
2023-01-13T22:34:02.783Z,101307.53
2023-01-13T22:36:29.189Z,101306.50
2023-01-13T22:38:55.995Z,101289.91
2023-01-13T22:41:22.885Z,101301.91
2023-01-13T22:43:49.370Z,101297.16
2023-01-13T22:46:15.897Z,101286.91
2023-01-13T22:48:42.267Z,101283.50
2023-01-13T22:51:12.729Z,101282.34
2023-01-13T22:53:39.651Z,101296.69
2023-01-13T22:56:06.826Z,101284.19
2023-01-13T22:58:33.581Z,101300.28
2023-01-13T23:01:17.463Z,101299.94
2023-01-13T23:03:44.411Z,101312.47
2023-01-13T23:06:10.951Z,101309.03
2023-01-13T23:08:37.366Z,101302.88
2023-01-13T23:11:06.619Z,101311.16
2023-01-13T23:13:33.495Z,101321.22
2023-01-13T23:16:07.324Z,101328.53
2023-01-13T23:18:34.179Z,101314.03
2023-01-13T23:21:11.329Z,101328.19
2023-01-13T23:23:38.492Z,101328.72
2023-01-13T23:26:06.828Z,101340.41
2023-01-13T23:28:34.376Z,101333.94
2023-01-13T23:31:00.849Z,101326.44
2023-01-13T23:33:27.463Z,101338.00
2023-01-13T23:35:58.550Z,101333.78
2023-01-13T23:38:25.188Z,101328.91
2023-01-13T23:40:51.548Z,101319.97
2023-01-13T23:43:18.058Z,101316.84
2023-01-13T23:45:44.528Z,101307.44
2023-01-13T23:48:11.119Z,101306.91
2023-01-13T23:50:37.526Z,101308.50
2023-01-13T23:53:03.892Z,101307.03
2023-01-13T23:55:30.231Z,101301.81
2023-01-13T23:57:56.590Z,101304.06
